Main page
METAR-TAF:

METAR-TAF

Airports :

Ostend, Belgium

Ostend–Bruges International Airport

latitude: 51-12N, longitude: 002-52E, elevation: 4 m

Current weather observation

The report was made 23 minutes ago, at 23:50 UTC
Wind 6 kt from the South/Southwest
Temperature 10°C
Humidity 87%
Pressure 1022 hPa
Visibility 10 km or more
Scattered clouds at a height of 3200 ft

METAR: EBOS 192350Z 21006KT 9999 SCT032 10/08 Q1022 NOSIG

Time: 02:13 (00:13 UTC)

Forecast

The report was made 1 hour and 11 minutes ago, at 23:02 UTC
Forecast valid from 20 at 00 UTC to 21 at 06 UTC
Wind 7 kt from the Southwest
Visibility 10 km or more
Few clouds at a height of 2500 ft
Scattered clouds at a height of 4500 ft

TAF: EBOS 192302Z 2000/2106 23007KT 9999 FEW025 SCT045

Weather observations and forecasts of more than 4000 airports (METAR and TAF reports).

The available stations are represented by yellow and red dots on the map.

Hover mouse over dot to see the name of the station.

Then click to see weather observations and forecasts.

To change the map : click on the green buttons with a black cross to zoom in, on the green button with a dash to zoom out, or on the green arrows for adjacent maps.


METAR-TAF: